Guangzhou Baiyun International, Guangdong

6:20 AM CST on September 03, 2014 (GMT +0800)
Baiyun | Change Station
CLOSE
Current Station
Airport
Location: Guangzhou Baiyun Intl,
Elevation: 49 ft
Nearby Weather Stations

Elev 49 ft 23.40 °N, 113.30 °E | Updated 20 minutes ago

Clear
Clear
82 °F
Feels Like 90 °F
N
4
Wind Variable Wind from SW

Today
High -- | Low -- °F
--% Chance of Precip.
Yesterday
High -- | Low -- °F
Precip. -- in
6:09 AM 6:42 PM
First Quarter, 55% visible
Pressure 29.80 in
Visibility 4.3 miles
Clouds
Heat Index 90 °F
Dew Point 75 °F
Humidity 79%
Rainfall 0.00 in
Snow Depth Not available.
UV Not available.
Pollen Not available.
Air Quality Not available.
Flu Activity Not available.
METAR ZGGG 022200Z 23002MPS 7000 NSC 28/24 Q1009 NOSIG

More Conditions Fewer Conditions

Pressure 29.80 in
Visibility 4.3 miles
Clouds
Heat Index 90 °F
Dew Point 75 °F
Humidity 79%
Rainfall 0.00 in
Snow Depth Not available.
UV Not available.
Pollen Not available.
Air Quality Not available.
Flu Activity Not available.
METAR ZGGG 022200Z 23002MPS 7000 NSC 28/24 Q1009 NOSIG

More Conditions Fewer Conditions

10-Day Weather Forecast

Almanac

Astronomy

Sep. 03, 2014 Rise Set
Actual Time 6:09 AM CST 6:42 PM CST
Civil Twilight 5:46 AM CST 7:05 PM CST
Nautical Twilight 5:19 AM CST 7:32 PM CST
Astronomical Twilight 4:52 AM CST 7:59 PM CST
Moon 1:31 PM CST (9/3) No Moon Set
Length of Visible Light 13h 19m
Length of Day
12h 33m
Tomorrow will be 1m 18s shorter.
First Quarter, 55% of the Moon is Illuminated
Sep 2
First Quarter
Sep 8
Full
Sep 15
Last Quarter
Sep 24
New
Oct 1
First Quarter

Yesterday's Extremes

Country Highs Country Lows

Community

WunderPhotos

Upload Photos

1,749,788 photos uploaded!

Nearby

Snow Depth

Not available.

Earthquake Activity

City Distance Mag. Time & Date
No recent earthquake activity has been reported nearby.
Minimum magnitude displayed is 2.5.

Coastal Water Temperatures

Place Temperature
No Stations Reporting

Nearby Weather Stations